Time;durP1;ratioP1;P1;durP2;ratioP2;P2;SDS_P1;SDS_P2;PMS_P1;PMS_P2;Temp;Humidity;BMP_temperature;BMP_pressure;BME280_temperature;BME280_humidity;BME280_pressure;Samples;Min_cycle;Max_cycle;Signal;HPM_P1;HPM_P2
2022/02/18 00:01:05;;;;;;;13.27;5.28;;;;;;;13.28;60.52;98985.84;5090125;28;20031;-49
2022/02/18 00:03:32;;;;;;;10.75;4.88;;;;;;;13.30;60.61;99007.56;5090189;28;20513;-49
2022/02/18 00:05:58;;;;;;;13.98;5.70;;;;;;;13.30;60.47;99000.50;5091390;28;20024;-49
2022/02/18 00:08:25;;;;;;;13.27;5.63;;;;;;;13.39;60.21;98982.59;5090137;28;20027;-49
2022/02/18 00:10:51;;;;;;;11.77;5.20;;;;;;;13.34;60.89;98983.22;5107043;28;20405;-49
2022/02/18 00:13:18;;;;;;;15.15;5.60;;;;;;;13.40;60.87;98992.13;5091920;28;20031;-50
2022/02/18 00:15:45;;;;;;;13.15;5.28;;;;;;;13.57;60.60;98982.69;5093738;28;20028;-48
2022/02/18 00:18:11;;;;;;;15.95;6.07;;;;;;;13.78;60.33;98981.56;5094934;28;20055;-50
2022/02/18 00:20:38;;;;;;;18.25;5.60;;;;;;;13.94;59.78;98974.94;5093657;28;20032;-49
2022/02/18 00:23:06;;;;;;;13.93;6.25;;;;;;;13.87;59.52;98976.00;5093547;28;20036;-49
2022/02/18 00:25:34;;;;;;;17.35;7.47;;;;;;;13.73;59.66;98976.09;5093509;28;20149;-50
2022/02/18 00:28:00;;;;;;;13.68;5.95;;;;;;;13.50;60.16;98970.56;5094846;28;20024;-49
2022/02/18 00:30:26;;;;;;;19.35;6.55;;;;;;;13.27;60.45;98961.31;5093414;28;20111;-49
2022/02/18 00:32:52;;;;;;;14.73;6.10;;;;;;;13.12;61.29;98960.78;5093425;28;20028;-49
2022/02/18 00:35:19;;;;;;;11.80;4.82;;;;;;;13.02;61.18;98961.25;5093300;28;20113;-49
2022/02/18 00:37:49;;;;;;;16.63;5.88;;;;;;;12.84;61.67;98969.84;5094410;28;20639;-49
2022/02/18 00:40:15;;;;;;;23.80;7.25;;;;;;;12.81;62.48;98956.25;5093099;28;20055;-50
2022/02/18 00:42:42;;;;;;;12.82;5.50;;;;;;;12.77;62.64;98959.28;5094484;28;20017;-49
2022/02/18 00:45:10;;;;;;;15.23;5.40;;;;;;;12.69;62.10;98961.38;5093073;28;20043;-49
2022/02/18 00:47:35;;;;;;;13.68;5.28;;;;;;;12.65;62.53;98960.16;5093086;28;20528;-49
2022/02/18 00:50:01;;;;;;;19.33;5.78;;;;;;;12.61;62.75;98953.69;5092988;28;20028;-49
2022/02/18 00:52:27;;;;;;;11.38;5.25;;;;;;;12.61;62.55;98951.84;5092986;28;20506;-49
2022/02/18 00:54:53;;;;;;;12.05;5.47;;;;;;;12.61;62.31;98941.31;5092918;28;20024;-49
2022/02/18 00:57:18;;;;;;;15.00;5.85;;;;;;;12.55;62.48;98936.88;5092883;28;20110;-49
2022/02/18 00:59:44;;;;;;;13.57;5.47;;;;;;;12.48;62.75;98929.00;5092825;28;20462;-48
2022/02/18 01:02:10;;;;;;;10.65;6.00;;;;;;;12.41;62.98;98936.09;5092844;28;20457;-49
2022/02/18 01:04:37;;;;;;;15.60;6.22;;;;;;;12.41;63.44;98935.31;5092777;28;20020;-48
2022/02/18 01:07:04;;;;;;;14.32;5.00;;;;;;;12.37;63.43;98932.28;5092688;28;20024;-49
2022/02/18 01:09:30;;;;;;;12.32;5.82;;;;;;;12.36;63.69;98931.47;5093994;28;20040;-48
2022/02/18 01:11:56;;;;;;;13.00;5.30;;;;;;;12.40;63.54;98923.97;5092579;28;20378;-48
2022/02/18 01:14:22;;;;;;;14.07;4.80;;;;;;;12.51;63.64;98920.69;5092580;28;20032;-49
2022/02/18 01:16:48;;;;;;;11.73;4.35;;;;;;;12.77;63.01;98916.34;5093764;28;20020;-48
2022/02/18 01:19:14;;;;;;;13.05;5.55;;;;;;;12.95;62.27;98908.56;5092361;28;20030;-50
2022/02/18 01:21:40;;;;;;;10.65;5.15;;;;;;;13.12;61.53;98908.09;5092432;28;20043;-50
2022/02/18 01:24:06;;;;;;;12.90;4.57;;;;;;;13.10;61.15;98904.84;5091330;28;20079;-50
2022/02/18 01:26:33;;;;;;;11.88;4.55;;;;;;;13.09;60.89;98906.69;5092352;28;20523;-50
2022/02/18 01:28:59;;;;;;;13.00;4.45;;;;;;;12.96;60.79;98901.50;5092180;28;20032;-49
2022/02/18 01:31:25;;;;;;;14.77;4.32;;;;;;;12.79;61.45;98899.31;5092246;28;20642;-49
2022/02/18 01:33:56;;;;;;;10.25;4.15;;;;;;;12.62;61.90;98905.28;5093502;28;20024;-49
2022/02/18 01:36:25;;;;;;;11.27;4.03;;;;;;;12.52;62.14;98897.81;5093497;28;20024;-50
2022/02/18 01:38:52;;;;;;;11.57;4.22;;;;;;;12.38;62.29;98884.69;5093163;28;20047;-49
2022/02/18 01:41:18;;;;;;;11.00;4.70;;;;;;;12.16;62.99;98876.25;5092028;28;20031;-50
2022/02/18 01:43:53;;;;;;;12.10;4.30;;;;;;;11.96;63.67;98875.47;5091995;28;20076;-48
2022/02/18 01:46:20;;;;;;;9.05;4.20;;;;;;;11.85;64.17;98862.91;5093320;28;20028;-50
2022/02/18 01:48:46;;;;;;;8.80;3.83;;;;;;;11.68;64.53;98850.19;5091898;28;20036;-49
2022/02/18 01:51:12;;;;;;;8.35;4.07;;;;;;;11.72;64.76;98859.28;5091837;28;20161;-48
2022/02/18 01:53:38;;;;;;;12.80;4.45;;;;;;;11.73;64.49;98846.94;5091878;28;20023;-48
2022/02/18 01:56:04;;;;;;;13.05;3.92;;;;;;;11.84;63.94;98843.69;5093041;28;20048;-48
2022/02/18 01:58:30;;;;;;;10.82;3.08;;;;;;;12.00;63.59;98837.22;5091636;28;20481;-49
2022/02/18 02:00:57;;;;;;;9.20;3.72;;;;;;;12.25;62.70;98842.63;5091670;28;20118;-50
2022/02/18 02:03:24;;;;;;;6.28;3.25;;;;;;;12.26;62.35;98844.25;5091677;28;20110;-48
2022/02/18 02:05:55;;;;;;;9.55;4.15;;;;;;;12.21;61.88;98846.69;5092859;28;20536;-49
2022/02/18 02:08:22;;;;;;;9.05;3.70;;;;;;;11.99;62.24;98840.84;5093492;28;20020;-48
2022/02/18 02:10:47;;;;;;;10.95;3.33;;;;;;;11.80;62.53;98838.03;5092724;28;20105;-49
2022/02/18 02:13:31;;;;;;;11.52;4.22;;;;;;;11.80;62.90;98834.59;5091480;28;20502;-48
2022/02/18 02:15:57;;;;;;;8.40;3.30;;;;;;;11.85;63.09;98837.44;5091399;28;20036;-50
2022/02/18 02:18:22;;;;;;;13.20;3.53;;;;;;;11.92;62.50;98834.81;5091288;28;20028;-49
2022/02/18 02:20:48;;;;;;;15.00;3.03;;;;;;;11.87;62.64;98838.03;5091268;28;20494;-49
2022/02/18 02:23:15;;;;;;;15.02;4.32;;;;;;;11.74;62.93;98838.03;5091251;28;20020;-50
2022/02/18 02:25:41;;;;;;;12.02;3.58;;;;;;;11.64;63.06;98833.19;5091144;28;20067;-48
2022/02/18 02:28:07;;;;;;;12.18;3.03;;;;;;;11.55;63.10;98829.16;5092534;28;20063;-50
2022/02/18 02:30:32;;;;;;;14.18;4.88;;;;;;;11.51;63.82;98830.56;5091135;28;20031;-48
2022/02/18 02:32:58;;;;;;;14.60;4.07;;;;;;;11.59;64.02;98825.13;5091090;28;20023;-49
2022/02/18 02:35:24;;;;;;;9.70;4.00;;;;;;;11.60;63.61;98829.34;5092147;28;20035;-48
2022/02/18 02:37:49;;;;;;;9.00;4.10;;;;;;;11.59;63.73;98822.50;5092024;28;20052;-49
2022/02/18 02:40:18;;;;;;;12.18;4.43;;;;;;;11.51;63.71;98820.06;5090930;28;20120;-48
2022/02/18 02:42:46;;;;;;;9.18;4.35;;;;;;;11.44;64.17;98819.25;5092403;28;20027;-50
2022/02/18 02:45:13;;;;;;;12.40;4.35;;;;;;;11.36;64.20;98825.53;5090881;28;20040;-50
2022/02/18 02:47:41;;;;;;;6.65;3.83;;;;;;;11.22;64.55;98816.81;5090876;28;20028;-49
2022/02/18 02:50:08;;;;;;;12.15;3.85;;;;;;;11.18;64.57;98821.66;5090806;28;20028;-48
2022/02/18 02:52:34;;;;;;;8.50;3.97;;;;;;;11.08;64.94;98804.69;5092122;28;20081;-49
2022/02/18 02:54:59;;;;;;;11.85;3.78;;;;;;;11.10;64.58;98805.28;5090791;28;20020;-49
2022/02/18 02:57:25;;;;;;;9.05;3.38;;;;;;;11.14;64.36;98796.00;5091019;28;20383;-49
2022/02/18 02:59:51;;;;;;;12.73;4.20;;;;;;;11.07;64.37;98795.19;5090629;28;20130;-49
2022/02/18 03:02:16;;;;;;;11.75;3.33;;;;;;;11.20;64.74;98790.75;5090652;28;20573;-48
2022/02/18 03:04:42;;;;;;;6.25;2.88;;;;;;;11.46;63.14;98790.97;5090613;28;20107;-48
2022/02/18 03:07:08;;;;;;;11.05;3.00;;;;;;;11.52;62.57;98785.69;5090672;28;20403;-49
2022/02/18 03:09:33;;;;;;;9.82;3.13;;;;;;;11.27;62.33;98782.88;5090655;28;20533;-49
2022/02/18 03:11:59;;;;;;;11.73;3.17;;;;;;;10.89;63.50;98775.56;5090543;28;20032;-50
2022/02/18 03:14:25;;;;;;;8.98;3.22;;;;;;;10.65;64.25;98768.28;5090565;28;20031;-49
2022/02/18 03:16:51;;;;;;;14.85;3.42;;;;;;;10.57;64.44;98770.06;5090479;28;20032;-50
2022/02/18 03:19:16;;;;;;;10.15;3.60;;;;;;;10.51;64.69;98772.66;5090438;28;20076;-50
2022/02/18 03:21:42;;;;;;;16.92;3.05;;;;;;;10.47;64.82;98772.25;5090522;28;20370;-49
2022/02/18 03:24:08;;;;;;;8.77;3.15;;;;;;;10.45;65.28;98776.88;5090481;28;20515;-49
2022/02/18 03:26:33;;;;;;;10.57;3.42;;;;;;;10.42;65.21;98769.41;5090425;28;20016;-48
2022/02/18 03:28:59;;;;;;;9.23;4.10;;;;;;;10.38;65.23;98770.78;5091730;28;20039;-49
2022/02/18 03:31:25;;;;;;;7.90;3.67;;;;;;;10.26;65.34;98765.31;5090399;28;20391;-48
2022/02/18 03:33:50;;;;;;;13.25;3.45;;;;;;;10.22;65.68;98765.88;5091697;28;20020;-49
2022/02/18 03:36:16;;;;;;;9.18;3.10;;;;;;;10.20;65.68;98764.25;5090362;28;20081;-49
2022/02/18 03:38:42;;;;;;;8.70;3.50;;;;;;;10.12;66.10;98761.81;5091256;28;20070;-48
2022/02/18 03:41:09;;;;;;;11.80;2.95;;;;;;;10.13;66.23;98752.13;5090327;28;20090;-48
2022/02/18 03:43:35;;;;;;;10.30;4.07;;;;;;;10.09;65.69;98753.53;5090296;28;20024;-48
2022/02/18 03:46:01;;;;;;;15.10;5.10;;;;;;;9.98;66.19;98745.22;5090199;28;20085;-48
2022/02/18 03:48:29;;;;;;;11.77;4.72;;;;;;;9.95;66.17;98745.59;5092565;28;20039;-50
2022/02/18 03:50:56;;;;;;;11.15;3.30;;;;;;;9.84;66.45;98745.31;5095477;28;20394;-48
2022/02/18 03:53:21;;;;;;;9.90;3.38;;;;;;;9.62;66.58;98737.56;5094124;28;20051;-50
2022/02/18 03:55:49;;;;;;;12.15;3.90;;;;;;;9.42;67.03;98740.06;5094055;28;20060;-48
2022/02/18 03:58:15;;;;;;;8.32;3.03;;;;;;;9.29;67.72;98740.75;5095388;28;20016;-50
2022/02/18 04:00:41;;;;;;;11.75;3.30;;;;;;;9.26;67.96;98738.53;5093927;28;20127;-49
2022/02/18 04:03:07;;;;;;;10.30;3.55;;;;;;;9.26;68.24;98730.69;5093984;28;20118;-49
2022/02/18 04:05:33;;;;;;;9.88;4.32;;;;;;;9.20;68.17;98719.16;5093882;28;20401;-48
2022/02/18 04:07:59;;;;;;;11.43;3.65;;;;;;;9.25;67.86;98721.19;5093855;28;20038;-49
2022/02/18 04:10:25;;;;;;;13.27;3.40;;;;;;;9.43;67.60;98717.28;5093814;28;20111;-49
2022/02/18 04:12:50;;;;;;;10.63;2.95;;;;;;;9.59;67.40;98715.16;5093781;28;20020;-49
2022/02/18 04:15:16;;;;;;;5.53;2.67;;;;;;;9.60;66.90;98711.53;5093722;28;20040;-49
2022/02/18 04:17:42;;;;;;;9.35;2.80;;;;;;;9.47;67.04;98708.03;5093716;28;20028;-49
2022/02/18 04:20:08;;;;;;;7.55;3.20;;;;;;;9.23;67.43;98709.28;5093529;28;20390;-50
2022/02/18 04:22:34;;;;;;;7.88;2.78;;;;;;;9.14;68.41;98698.16;5093562;28;20498;-49
2022/02/18 04:24:59;;;;;;;11.88;3.70;;;;;;;9.06;68.09;98693.06;5094895;28;20031;-50
2022/02/18 04:27:25;;;;;;;9.40;3.50;;;;;;;8.93;68.95;98699.81;5093514;28;20439;-48
2022/02/18 04:29:50;;;;;;;15.85;3.90;;;;;;;8.91;69.08;98696.56;5093442;28;20118;-47
2022/02/18 04:32:16;;;;;;;9.75;3.22;;;;;;;8.86;69.24;98691.09;5093421;28;20077;-49
2022/02/18 04:34:42;;;;;;;10.05;3.17;;;;;;;8.90;68.78;98684.47;5093363;28;20028;-47
2022/02/18 04:37:08;;;;;;;10.88;3.33;;;;;;;8.90;68.82;98678.44;5094377;28;20389;-49
2022/02/18 04:39:33;;;;;;;10.80;2.63;;;;;;;8.99;68.84;98678.13;5093232;28;20492;-49
2022/02/18 04:41:59;;;;;;;8.20;2.83;;;;;;;9.00;68.77;98674.50;5093195;28;20036;-49
2022/02/18 04:44:25;;;;;;;8.05;3.45;;;;;;;9.06;68.37;98672.94;5093184;28;20032;-48
2022/02/18 04:46:50;;;;;;;12.43;3.53;;;;;;;9.13;68.34;98676.38;5093379;28;20078;-48
2022/02/18 04:49:16;;;;;;;12.55;4.15;;;;;;;9.03;68.14;98675.09;5076297;28;20032;-49
2022/02/18 04:51:42;;;;;;;15.80;4.13;;;;;;;8.94;68.74;98670.03;5094382;28;20024;-48
2022/02/18 04:54:07;;;;;;;12.32;4.75;;;;;;;8.94;68.25;98663.97;5093031;28;20032;-48
2022/02/18 04:56:34;;;;;;;9.98;5.25;;;;;;;8.88;68.37;98665.53;5092989;28;20027;-48
2022/02/18 04:59:00;;;;;;;10.85;4.75;;;;;;;8.83;68.49;98656.63;5094118;28;20073;-49
2022/02/18 05:01:26;;;;;;;15.05;5.10;;;;;;;8.77;68.64;98652.97;5092843;28;20020;-49
2022/02/18 05:03:53;;;;;;;10.88;3.53;;;;;;;8.69;68.46;98651.31;5094188;28;20472;-48
2022/02/18 05:06:19;;;;;;;8.00;3.45;;;;;;;8.65;69.05;98649.25;5092773;28;20550;-48
2022/02/18 05:08:45;;;;;;;11.50;3.67;;;;;;;8.60;68.98;98642.78;5092715;28;20034;-47
2022/02/18 05:11:11;;;;;;;11.25;3.92;;;;;;;8.59;68.64;98637.72;5092724;28;20024;-49
2022/02/18 05:13:38;;;;;;;10.50;3.83;;;;;;;8.54;69.01;98635.69;5092668;28;20028;-48
2022/02/18 05:16:04;;;;;;;10.88;4.18;;;;;;;8.58;69.07;98630.88;5092526;28;20024;-47
2022/02/18 05:18:31;;;;;;;9.30;3.20;;;;;;;8.57;69.10;98630.09;5092464;28;20021;-49
2022/02/18 05:20:57;;;;;;;7.80;2.78;;;;;;;8.59;69.17;98635.94;5093803;28;20111;-49
2022/02/18 05:23:23;;;;;;;9.15;2.67;;;;;;;8.55;68.45;98626.84;5093781;28;20035;-49
2022/02/18 05:25:49;;;;;;;10.35;3.20;;;;;;;8.47;68.89;98618.31;5093728;28;20069;-49
2022/02/18 05:28:15;;;;;;;9.43;3.00;;;;;;;8.40;68.85;98626.06;5092375;28;20021;-48
2022/02/18 05:30:42;;;;;;;8.57;3.30;;;;;;;8.33;68.99;98617.34;5092282;28;20028;-49
2022/02/18 05:33:09;;;;;;;19.30;6.90;;;;;;;8.37;69.28;98627.25;5092256;28;20445;-49
2022/02/18 05:35:35;;;;;;;9.40;5.05;;;;;;;8.34;69.03;98630.25;5093487;28;20095;-48
2022/02/18 05:38:01;;;;;;;12.25;4.13;;;;;;;8.24;68.53;98628.94;5091899;28;20127;-48
2022/02/18 05:40:26;;;;;;;12.75;3.95;;;;;;;8.17;68.99;98621.84;5091990;28;20500;-49
2022/02/18 05:42:52;;;;;;;9.35;3.75;;;;;;;8.11;68.99;98622.59;5092057;28;20027;-49
2022/02/18 05:45:18;;;;;;;10.30;3.42;;;;;;;8.05;69.36;98614.66;5091979;28;20024;-48
2022/02/18 05:47:43;;;;;;;13.27;3.83;;;;;;;8.00;69.37;98616.03;5091960;28;20020;-49
2022/02/18 05:50:11;;;;;;;12.00;4.28;;;;;;;8.02;69.80;98622.88;5091896;28;20031;-48
2022/02/18 05:52:38;;;;;;;10.93;4.03;;;;;;;8.03;70.27;98608.81;5093242;28;20417;-49
2022/02/18 05:55:05;;;;;;;12.43;4.07;;;;;;;7.99;69.96;98609.19;5092063;28;20062;-49
2022/02/18 05:57:31;;;;;;;8.80;3.08;;;;;;;8.08;69.68;98601.25;5091762;28;20386;-49
2022/02/18 05:59:57;;;;;;;11.70;4.05;;;;;;;8.23;69.58;98602.00;5091638;28;20028;-49
2022/02/18 06:02:23;;;;;;;6.28;3.00;;;;;;;8.32;69.35;98598.25;5092951;28;20051;-48
2022/02/18 06:04:49;;;;;;;9.80;4.03;;;;;;;8.33;69.29;98596.44;5091655;28;20054;-49
2022/02/18 06:07:18;;;;;;;8.02;3.25;;;;;;;8.33;68.42;98599.03;5091553;28;20020;-48
2022/02/18 06:09:44;;;;;;;8.73;3.63;;;;;;;8.30;69.04;98596.81;5091348;28;20059;-49
2022/02/18 06:12:11;;;;;;;9.25;2.85;;;;;;;8.25;69.07;98593.94;5091192;28;20042;-49
2022/02/18 06:14:37;;;;;;;8.82;2.70;;;;;;;8.28;68.76;98593.59;5091421;28;20564;-48
2022/02/18 06:17:05;;;;;;;9.07;2.88;;;;;;;8.41;68.46;98596.34;5091377;28;20027;-48
2022/02/18 06:19:33;;;;;;;14.73;3.78;;;;;;;8.49;68.70;98603.22;5092573;28;20028;-49
2022/02/18 06:21:59;;;;;;;8.20;2.65;;;;;;;8.47;67.86;98598.22;5092640;28;20031;-49
2022/02/18 06:24:25;;;;;;;7.53;3.00;;;;;;;8.49;68.33;98588.38;5091307;28;20031;-49
2022/02/18 06:26:51;;;;;;;9.82;3.47;;;;;;;8.56;68.05;98596.25;5091231;28;20031;-47
2022/02/18 06:29:16;;;;;;;6.90;2.38;;;;;;;8.58;67.35;98591.66;5092525;28;20437;-49
2022/02/18 06:31:42;;;;;;;8.07;2.90;;;;;;;8.62;67.60;98586.84;5091149;28;20024;-49
2022/02/18 06:34:08;;;;;;;10.65;3.15;;;;;;;8.65;67.86;98594.31;5092376;28;20111;-49
2022/02/18 06:36:34;;;;;;;8.13;3.00;;;;;;;8.71;67.60;98590.94;5091062;28;20027;-49
2022/02/18 06:38:59;;;;;;;5.57;2.80;;;;;;;8.85;67.56;98586.59;5090762;28;20071;-48
2022/02/18 06:41:25;;;;;;;7.47;3.90;;;;;;;8.98;67.18;98587.50;5090947;28;20504;-48
2022/02/18 06:43:51;;;;;;;7.72;3.10;;;;;;;9.10;66.43;98584.34;5090995;28;20020;-49
2022/02/18 06:46:16;;;;;;;11.45;3.83;;;;;;;9.19;65.63;98583.19;5090841;28;20035;-48
2022/02/18 06:48:42;;;;;;;6.72;3.17;;;;;;;9.17;65.92;98574.69;5090897;28;20024;-49
2022/02/18 06:51:08;;;;;;;9.57;3.28;;;;;;;9.17;65.59;98574.69;5090829;28;20505;-49
2022/02/18 06:53:33;;;;;;;9.52;3.45;;;;;;;9.10;65.95;98576.50;5090812;28;20023;-49
2022/02/18 06:56:00;;;;;;;15.07;4.65;;;;;;;8.98;65.71;98582.25;5090779;28;20570;-48
2022/02/18 06:58:26;;;;;;;8.77;3.85;;;;;;;8.77;66.60;98572.69;5092096;28;20024;-48
2022/02/18 07:00:52;;;;;;;12.27;3.95;;;;;;;8.62;66.62;98574.56;5090696;28;20039;-48
2022/02/18 07:03:21;;;;;;;10.75;3.78;;;;;;;8.59;67.37;98569.72;5090664;28;20031;-48
2022/02/18 07:05:48;;;;;;;7.43;3.47;;;;;;;8.54;67.94;98561.63;5090661;28;20077;-49
2022/02/18 07:08:15;;;;;;;12.68;3.63;;;;;;;8.56;67.98;98557.03;5091982;28;20107;-48
2022/02/18 07:10:41;;;;;;;8.40;4.05;;;;;;;8.70;68.29;98550.09;5090560;28;20035;-49
2022/02/18 07:13:08;;;;;;;10.05;3.67;;;;;;;8.86;67.14;98539.31;5091896;28;20521;-47
2022/02/18 07:15:34;;;;;;;9.95;4.43;;;;;;;9.22;67.19;98533.06;5090523;28;20042;-49
2022/02/18 07:18:02;;;;;;;10.95;4.60;;;;;;;10.09;64.83;98539.31;5090613;28;20078;-48
2022/02/18 07:20:28;;;;;;;9.85;3.50;;;;;;;10.92;62.58;98530.97;5092027;28;20055;-50
2022/02/18 07:22:54;;;;;;;10.40;4.28;;;;;;;11.36;60.86;98536.50;5091945;28;20061;-48
2022/02/18 07:25:20;;;;;;;14.30;4.00;;;;;;;11.99;60.24;98520.81;5094697;28;20020;-50
2022/02/18 07:27:46;;;;;;;6.50;3.63;;;;;;;12.95;57.88;98528.44;5096038;28;20020;-49
2022/02/18 07:30:13;;;;;;;12.00;3.90;;;;;;;13.71;55.56;98516.59;5095942;28;20027;-49
2022/02/18 07:32:40;;;;;;;12.23;4.10;;;;;;;14.36;52.78;98514.97;5095902;28;20074;-49
2022/02/18 07:35:07;;;;;;;13.52;4.28;;;;;;;14.91;51.93;98514.66;5094531;28;20024;-50
2022/02/18 07:37:33;;;;;;;9.30;3.88;;;;;;;15.16;50.19;98511.69;5094133;28;20036;-49
2022/02/18 07:39:59;;;;;;;8.27;3.95;;;;;;;15.21;50.09;98500.41;5095667;28;20402;-50
2022/02/18 07:42:24;;;;;;;17.92;4.30;;;;;;;14.88;49.66;98495.81;5094333;28;20256;-49
2022/02/18 07:44:50;;;;;;;15.05;4.60;;;;;;;14.11;50.59;98492.25;5094371;28;20025;-50
2022/02/18 07:47:16;;;;;;;12.10;4.32;;;;;;;12.94;52.85;98487.34;5094235;28;20333;-48
2022/02/18 07:49:43;;;;;;;12.68;4.93;;;;;;;12.12;55.06;98492.78;5095580;28;20099;-48
2022/02/18 07:52:10;;;;;;;9.98;4.47;;;;;;;12.04;56.47;98488.59;5094285;28;20444;-49
2022/02/18 07:54:37;;;;;;;10.13;4.32;;;;;;;12.55;55.19;98477.00;5095481;28;20494;-48
2022/02/18 07:57:03;;;;;;;9.88;4.35;;;;;;;12.56;54.93;98472.56;5094076;28;20375;-50
2022/02/18 07:59:29;;;;;;;8.13;3.67;;;;;;;12.29;55.08;98462.25;5094276;28;20415;-49
2022/02/18 08:01:55;;;;;;;8.70;3.78;;;;;;;12.23;56.21;98457.88;5093992;28;20024;-48
2022/02/18 08:04:21;;;;;;;9.95;3.97;;;;;;;12.77;55.92;98460.78;5093904;28;20024;-49
2022/02/18 08:06:46;;;;;;;7.75;3.80;;;;;;;13.52;54.11;98454.38;5093937;28;20028;-50
2022/02/18 08:09:12;;;;;;;8.48;3.85;;;;;;;14.13;53.00;98452.44;5093864;28;20027;-49
2022/02/18 08:11:38;;;;;;;6.70;3.72;;;;;;;14.97;51.44;98444.22;5095155;28;20094;-50
2022/02/18 08:14:04;;;;;;;24.00;6.00;;;;;;;15.57;50.05;98440.25;5095072;28;20107;-50
2022/02/18 08:16:32;;;;;;;17.88;6.00;;;;;;;15.95;48.24;98438.78;5093721;28;20031;-49
2022/02/18 08:18:59;;;;;;;19.13;5.28;;;;;;;16.15;47.95;98440.94;5094891;28;20035;-50
2022/02/18 08:21:26;;;;;;;12.05;4.63;;;;;;;16.68;47.05;98431.59;5094948;28;20016;-50
2022/02/18 08:23:52;;;;;;;9.40;4.43;;;;;;;17.28;46.45;98427.25;5095095;28;20034;-50
2022/02/18 08:26:22;;;;;;;25.85;7.70;;;;;;;17.69;46.06;98422.31;5093537;28;20147;-49
2022/02/18 08:28:49;;;;;;;11.90;4.38;;;;;;;18.23;44.14;98425.91;5094874;28;20024;-50
2022/02/18 08:31:15;;;;;;;16.63;4.28;;;;;;;18.68;42.63;98427.22;5093408;28;20027;-50
2022/02/18 08:33:43;;;;;;;7.95;3.60;;;;;;;19.04;41.60;98419.41;5094221;28;20022;-50
2022/02/18 08:36:09;;;;;;;10.85;4.13;;;;;;;18.85;41.66;98425.16;5094666;28;20390;-50
2022/02/18 08:38:36;;;;;;;37.17;7.32;;;;;;;19.11;42.96;98428.72;5093025;28;20102;-50
2022/02/18 08:41:02;;;;;;;22.88;5.60;;;;;;;20.50;41.22;98421.53;5093254;28;20428;-51
2022/02/18 08:43:28;;;;;;;14.48;4.75;;;;;;;21.91;39.06;98423.94;5094530;28;20073;-50
2022/02/18 08:45:54;;;;;;;9.38;4.03;;;;;;;22.78;36.62;98417.69;5094463;28;20027;-50
2022/02/18 08:48:19;;;;;;;8.73;3.80;;;;;;;23.26;35.50;98422.97;5094434;28;20016;-51
2022/02/18 08:50:45;;;;;;;13.05;4.28;;;;;;;23.46;34.59;98423.72;5094423;28;20031;-51
2022/02/18 08:53:11;;;;;;;11.07;3.95;;;;;;;23.89;34.34;98428.97;5094360;28;20023;-51
2022/02/18 08:55:37;;;;;;;9.93;3.60;;;;;;;24.33;33.61;98430.34;5094333;28;20036;-51
2022/02/18 08:58:03;;;;;;;18.10;3.30;;;;;;;24.20;32.74;98431.13;5094260;28;20435;-50
2022/02/18 09:00:29;;;;;;;13.65;3.38;;;;;;;24.18;32.94;98430.63;5094200;28;20016;-50
2022/02/18 09:02:55;;;;;;;9.23;4.10;;;;;;;24.65;32.25;98439.41;5092829;28;20498;-50
2022/02/18 09:05:21;;;;;;;10.48;2.85;;;;;;;24.91;31.77;98445.88;5094115;28;20020;-51
2022/02/18 09:07:47;;;;;;;7.63;2.67;;;;;;;24.74;31.99;98443.00;5094141;28;20081;-51
2022/02/18 09:10:13;;;;;;;14.93;3.95;;;;;;;24.35;32.23;98451.50;5092690;28;20063;-51
2022/02/18 09:12:40;;;;;;;13.15;3.85;;;;;;;23.62;33.30;98446.50;5094021;28;20020;-51
2022/02/18 09:15:07;;;;;;;15.25;3.20;;;;;;;24.02;32.71;98444.28;5093948;28;20397;-50
2022/02/18 09:17:33;;;;;;;8.77;3.08;;;;;;;23.80;32.78;98447.59;5092635;28;20035;-50
2022/02/18 09:19:59;;;;;;;10.00;2.92;;;;;;;22.70;34.29;98445.09;5093784;28;20023;-50
2022/02/18 09:22:25;;;;;;;5.45;2.50;;;;;;;22.45;34.98;98446.16;5093784;28;20581;-50
2022/02/18 09:24:52;;;;;;;6.88;2.45;;;;;;;22.73;34.67;98445.28;5092477;28;20378;-50
2022/02/18 09:27:18;;;;;;;12.35;3.28;;;;;;;23.38;33.45;98443.97;5092357;28;20028;-49
2022/02/18 09:29:44;;;;;;;12.00;3.72;;;;;;;24.08;32.27;98429.69;5093667;28;20035;-50
2022/02/18 09:32:10;;;;;;;7.82;2.72;;;;;;;24.67;31.79;98432.66;5093601;28;20513;-50
2022/02/18 09:34:36;;;;;;;7.57;2.72;;;;;;;25.54;30.38;98421.94;5092317;28;20016;-50
2022/02/18 09:37:06;;;;;;;13.57;4.68;;;;;;;26.11;30.10;98424.03;5092158;28;20028;-51
2022/02/18 09:39:32;;;;;;;6.95;2.60;;;;;;;27.03;28.56;98415.31;5093228;28;20454;-51
2022/02/18 09:41:58;;;;;;;8.00;2.63;;;;;;;27.41;27.59;98418.22;5092029;28;20405;-50
2022/02/18 09:44:25;;;;;;;12.13;2.72;;;;;;;28.09;26.97;98404.94;5092001;28;20021;-51
2022/02/18 09:46:52;;;;;;;10.38;4.53;;;;;;;28.85;26.37;98402.50;5092612;28;20028;-51
2022/02/18 09:49:18;;;;;;;8.20;3.15;;;;;;;29.38;25.53;98400.19;5093317;28;20039;-51
2022/02/18 09:51:45;;;;;;;7.78;3.10;;;;;;;29.75;24.71;98403.84;5093260;28;20431;-50
2022/02/18 09:54:11;;;;;;;11.50;3.33;;;;;;;30.36;24.41;98405.88;5093370;28;20024;-50
2022/02/18 09:56:42;;;;;;;7.03;2.95;;;;;;;30.90;23.30;98404.06;5091817;28;20035;-51
2022/02/18 09:59:10;;;;;;;5.65;1.98;;;;;;;31.14;23.08;98411.34;5093046;28;20036;-51
2022/02/18 10:01:36;;;;;;;6.35;2.33;;;;;;;31.28;22.91;98394.69;5093036;28;20103;-50
2022/02/18 10:04:03;;;;;;;10.00;2.90;;;;;;;31.51;23.26;98398.47;5091651;28;20442;-51
2022/02/18 10:06:30;;;;;;;6.55;2.72;;;;;;;31.84;22.38;98400.09;5092993;28;20047;-51
2022/02/18 10:09:01;;;;;;;7.75;2.78;;;;;;;32.15;22.51;98404.75;5091606;28;20375;-52
2022/02/18 10:11:33;;;;;;;16.80;2.78;;;;;;;31.91;22.09;98388.63;5092918;28;20028;-51
2022/02/18 10:13:59;;;;;;;4.55;1.45;;;;;;;30.73;21.40;98388.84;5092783;28;20107;-52
2022/02/18 10:16:25;;;;;;;5.03;1.10;;;;;;;29.83;22.40;98400.28;5091455;28;20111;-51
2022/02/18 10:18:59;;;;;;;2.75;1.13;;;;;;;29.54;23.01;98400.38;5092603;28;20509;-50
2022/02/18 10:21:29;;;;;;;7.28;2.10;;;;;;;29.16;22.84;98394.03;5091330;28;20063;-51
2022/02/18 10:24:14;;;;;;;2.85;0.90;;;;;;;28.43;24.00;98392.41;5092624;28;20028;-51
2022/02/18 10:26:51;;;;;;;5.85;1.30;;;;;;;27.84;24.20;98389.59;5092607;28;20023;-52
2022/02/18 10:29:17;;;;;;;18.90;2.20;;;;;;;27.02;24.82;98386.78;5092526;28;20055;-51
2022/02/18 10:31:43;;;;;;;12.32;1.48;;;;;;;26.05;26.78;98393.00;5091174;28;20501;-50
2022/02/18 10:34:11;;;;;;;2.03;1.00;;;;;;;25.61;26.99;98381.97;5091141;28;20028;-51
2022/02/18 10:36:37;;;;;;;4.75;1.08;;;;;;;25.56;27.19;98376.75;5092378;28;20032;-51
2022/02/18 10:39:23;;;;;;;3.22;1.27;;;;;;;25.42;27.25;98333.03;5092105;28;20494;-50
2022/02/18 10:42:01;;;;;;;3.38;1.17;;;;;;;24.91;28.43;98377.94;5092312;28;20070;-50
2022/02/18 10:44:29;;;;;;;12.02;1.40;;;;;;;24.55;28.58;98348.38;5092356;28;20028;-50
2022/02/18 10:46:55;;;;;;;3.83;0.95;;;;;;;24.50;29.07;98360.81;5090916;28;20023;-50
2022/02/18 10:49:38;;;;;;;5.60;1.17;;;;;;;24.56;28.40;98337.38;5092251;28;20031;-51
2022/02/18 10:52:25;;;;;;;1.98;0.80;;;;;;;23.62;30.09;98330.53;5092244;28;20046;-51
2022/02/18 10:54:51;;;;;;;2.78;1.00;;;;;;;23.14;30.59;98344.97;5092155;28;20020;-50
2022/02/18 10:57:23;;;;;;;10.18;1.13;;;;;;;22.94;31.34;98333.44;5091909;28;20020;-51
2022/02/18 10:59:51;;;;;;;2.58;0.80;;;;;;;22.96;31.14;98341.19;5091954;28;20024;-50
2022/02/18 11:02:42;;;;;;;3.17;1.33;;;;;;;22.76;31.48;98333.44;5092045;28;20012;-50
2022/02/18 11:05:29;;;;;;;11.52;1.05;;;;;;;22.89;31.54;98295.25;5091953;28;20485;-50
2022/02/18 11:07:56;;;;;;;6.03;1.55;;;;;;;22.47;32.35;98311.06;5091993;28;20028;-50
2022/02/18 11:10:48;;;;;;;4.20;1.20;;;;;;;22.27;32.73;98314.78;5090628;28;20062;-51
2022/02/18 11:13:15;;;;;;;11.45;1.70;;;;;;;22.14;32.87;98307.47;5086882;28;20028;-50
2022/02/18 11:15:42;;;;;;;4.10;0.82;;;;;;;22.32;32.59;98313.97;5091883;28;20077;-51
2022/02/18 11:18:08;;;;;;;7.97;2.70;;;;;;;22.82;32.80;98311.69;5090564;28;20409;-50
2022/02/18 11:20:35;;;;;;;6.32;1.77;;;;;;;23.70;31.33;98298.50;5090414;28;20441;-51
2022/02/18 11:23:01;;;;;;;2.72;1.00;;;;;;;24.23;30.06;98294.56;5091814;28;20020;-50
2022/02/18 11:25:27;;;;;;;4.35;1.40;;;;;;;24.16;30.30;98290.69;5091809;28;20439;-50
2022/02/18 11:27:54;;;;;;;2.28;0.93;;;;;;;23.86;30.94;98282.16;5090475;28;20052;-50
2022/02/18 11:30:21;;;;;;;2.70;1.25;;;;;;;23.63;31.40;98283.91;5090433;28;20485;-50